sensor_id;sensor_type;location;lat;lon;timestamp;P1;durP1;ratioP1;P2;durP2;ratioP2
1715;SDS011;855;48.824;9.220;2023-07-28T00:02:01;6.87;;;3.40;;
1715;SDS011;855;48.824;9.220;2023-07-28T00:04:29;6.67;;;3.40;;
1715;SDS011;855;48.824;9.220;2023-07-28T00:06:55;5.80;;;2.77;;
1715;SDS011;855;48.824;9.220;2023-07-28T00:09:22;11.80;;;4.30;;
1715;SDS011;855;48.824;9.220;2023-07-28T00:11:53;17.63;;;3.70;;
1715;SDS011;855;48.824;9.220;2023-07-28T00:17:33;8.40;;;4.03;;
1715;SDS011;855;48.824;9.220;2023-07-28T00:19:59;8.37;;;3.80;;
1715;SDS011;855;48.824;9.220;2023-07-28T00:22:33;10.70;;;4.10;;
1715;SDS011;855;48.824;9.220;2023-07-28T00:28:06;6.47;;;3.57;;
1715;SDS011;855;48.824;9.220;2023-07-28T00:30:33;8.37;;;4.03;;
1715;SDS011;855;48.824;9.220;2023-07-28T00:33:00;7.00;;;3.67;;
1715;SDS011;855;48.824;9.220;2023-07-28T00:35:27;7.30;;;3.23;;
1715;SDS011;855;48.824;9.220;2023-07-28T00:37:57;8.33;;;3.43;;
1715;SDS011;855;48.824;9.220;2023-07-28T00:40:43;8.27;;;4.33;;
1715;SDS011;855;48.824;9.220;2023-07-28T00:43:11;7.63;;;3.17;;
1715;SDS011;855;48.824;9.220;2023-07-28T00:45:37;10.47;;;3.93;;
1715;SDS011;855;48.824;9.220;2023-07-28T00:48:05;5.17;;;2.90;;
1715;SDS011;855;48.824;9.220;2023-07-28T00:50:38;5.40;;;2.83;;
1715;SDS011;855;48.824;9.220;2023-07-28T00:53:05;14.00;;;4.20;;
1715;SDS011;855;48.824;9.220;2023-07-28T00:55:33;13.43;;;4.07;;
1715;SDS011;855;48.824;9.220;2023-07-28T00:58:03;6.53;;;3.00;;
1715;SDS011;855;48.824;9.220;2023-07-28T01:00:32;11.37;;;3.17;;
1715;SDS011;855;48.824;9.220;2023-07-28T01:02:59;12.20;;;4.50;;
1715;SDS011;855;48.824;9.220;2023-07-28T01:05:28;7.67;;;3.83;;
1715;SDS011;855;48.824;9.220;2023-07-28T01:08:01;8.77;;;3.17;;
1715;SDS011;855;48.824;9.220;2023-07-28T01:13:38;13.00;;;4.40;;
1715;SDS011;855;48.824;9.220;2023-07-28T01:16:06;10.77;;;3.60;;
1715;SDS011;855;48.824;9.220;2023-07-28T01:18:36;10.90;;;4.00;;
1715;SDS011;855;48.824;9.220;2023-07-28T01:21:09;9.23;;;4.33;;
1715;SDS011;855;48.824;9.220;2023-07-28T01:23:44;7.33;;;3.70;;
1715;SDS011;855;48.824;9.220;2023-07-28T01:26:17;10.30;;;3.40;;
1715;SDS011;855;48.824;9.220;2023-07-28T01:29:19;7.43;;;3.03;;
1715;SDS011;855;48.824;9.220;2023-07-28T01:31:47;14.33;;;4.27;;
1715;SDS011;855;48.824;9.220;2023-07-28T01:34:14;9.90;;;3.67;;
1715;SDS011;855;48.824;9.220;2023-07-28T01:36:43;12.07;;;4.00;;
1715;SDS011;855;48.824;9.220;2023-07-28T01:39:15;10.53;;;3.63;;
1715;SDS011;855;48.824;9.220;2023-07-28T01:41:42;8.60;;;3.37;;
1715;SDS011;855;48.824;9.220;2023-07-28T01:44:09;9.93;;;3.07;;
1715;SDS011;855;48.824;9.220;2023-07-28T01:46:38;6.40;;;2.90;;
1715;SDS011;855;48.824;9.220;2023-07-28T01:51:59;5.23;;;2.63;;
1715;SDS011;855;48.824;9.220;2023-07-28T01:54:26;4.73;;;2.73;;
1715;SDS011;855;48.824;9.220;2023-07-28T01:56:53;6.40;;;2.83;;
1715;SDS011;855;48.824;9.220;2023-07-28T01:59:20;8.27;;;3.37;;
1715;SDS011;855;48.824;9.220;2023-07-28T02:01:48;3.97;;;2.20;;
1715;SDS011;855;48.824;9.220;2023-07-28T02:04:17;4.30;;;2.40;;
1715;SDS011;855;48.824;9.220;2023-07-28T02:06:44;12.50;;;3.10;;
1715;SDS011;855;48.824;9.220;2023-07-28T02:09:11;8.50;;;3.43;;
1715;SDS011;855;48.824;9.220;2023-07-28T02:11:38;8.63;;;3.30;;
1715;SDS011;855;48.824;9.220;2023-07-28T02:14:04;8.87;;;2.80;;
1715;SDS011;855;48.824;9.220;2023-07-28T02:16:31;5.60;;;2.23;;
1715;SDS011;855;48.824;9.220;2023-07-28T02:18:59;7.67;;;3.30;;
1715;SDS011;855;48.824;9.220;2023-07-28T02:21:26;6.13;;;2.33;;
1715;SDS011;855;48.824;9.220;2023-07-28T02:23:53;6.53;;;2.97;;
1715;SDS011;855;48.824;9.220;2023-07-28T02:26:20;5.77;;;2.70;;
1715;SDS011;855;48.824;9.220;2023-07-28T02:28:47;3.67;;;2.77;;
1715;SDS011;855;48.824;9.220;2023-07-28T02:31:14;6.10;;;2.80;;
1715;SDS011;855;48.824;9.220;2023-07-28T02:33:41;7.87;;;3.40;;
1715;SDS011;855;48.824;9.220;2023-07-28T02:36:09;8.87;;;3.77;;
1715;SDS011;855;48.824;9.220;2023-07-28T02:38:35;5.97;;;3.00;;
1715;SDS011;855;48.824;9.220;2023-07-28T02:41:02;6.20;;;3.03;;
1715;SDS011;855;48.824;9.220;2023-07-28T02:43:30;6.30;;;3.00;;
1715;SDS011;855;48.824;9.220;2023-07-28T02:45:57;10.03;;;4.30;;
1715;SDS011;855;48.824;9.220;2023-07-28T02:48:24;5.80;;;3.57;;
1715;SDS011;855;48.824;9.220;2023-07-28T02:50:51;8.57;;;3.70;;
1715;SDS011;855;48.824;9.220;2023-07-28T02:53:19;8.53;;;3.00;;
1715;SDS011;855;48.824;9.220;2023-07-28T02:55:47;7.00;;;2.70;;
1715;SDS011;855;48.824;9.220;2023-07-28T02:58:16;5.53;;;3.00;;
1715;SDS011;855;48.824;9.220;2023-07-28T03:00:43;9.00;;;2.80;;
1715;SDS011;855;48.824;9.220;2023-07-28T03:03:11;4.73;;;2.63;;
1715;SDS011;855;48.824;9.220;2023-07-28T03:05:38;4.37;;;3.00;;
1715;SDS011;855;48.824;9.220;2023-07-28T03:08:06;8.83;;;2.73;;
1715;SDS011;855;48.824;9.220;2023-07-28T03:10:34;5.37;;;2.80;;
1715;SDS011;855;48.824;9.220;2023-07-28T03:13:01;4.37;;;2.70;;
1715;SDS011;855;48.824;9.220;2023-07-28T03:15:28;9.90;;;2.60;;
1715;SDS011;855;48.824;9.220;2023-07-28T03:17:54;4.10;;;1.93;;
1715;SDS011;855;48.824;9.220;2023-07-28T03:20:21;4.30;;;2.27;;
1715;SDS011;855;48.824;9.220;2023-07-28T03:22:48;8.40;;;3.77;;
1715;SDS011;855;48.824;9.220;2023-07-28T03:25:15;4.30;;;2.47;;
1715;SDS011;855;48.824;9.220;2023-07-28T03:27:46;3.97;;;2.00;;
1715;SDS011;855;48.824;9.220;2023-07-28T03:30:12;5.43;;;2.13;;
1715;SDS011;855;48.824;9.220;2023-07-28T03:32:39;5.83;;;2.87;;
1715;SDS011;855;48.824;9.220;2023-07-28T03:35:07;6.10;;;2.50;;
1715;SDS011;855;48.824;9.220;2023-07-28T03:37:34;3.27;;;2.03;;
1715;SDS011;855;48.824;9.220;2023-07-28T03:40:01;3.83;;;2.23;;
1715;SDS011;855;48.824;9.220;2023-07-28T03:42:28;3.60;;;2.20;;
1715;SDS011;855;48.824;9.220;2023-07-28T03:44:56;4.97;;;2.33;;
1715;SDS011;855;48.824;9.220;2023-07-28T03:47:23;3.93;;;1.60;;
1715;SDS011;855;48.824;9.220;2023-07-28T03:49:49;6.73;;;2.30;;
1715;SDS011;855;48.824;9.220;2023-07-28T03:52:16;3.13;;;2.47;;
1715;SDS011;855;48.824;9.220;2023-07-28T03:54:43;4.30;;;2.37;;
1715;SDS011;855;48.824;9.220;2023-07-28T03:57:10;5.33;;;3.17;;
1715;SDS011;855;48.824;9.220;2023-07-28T03:59:36;7.30;;;2.60;;
1715;SDS011;855;48.824;9.220;2023-07-28T04:02:05;4.00;;;2.27;;
1715;SDS011;855;48.824;9.220;2023-07-28T04:04:32;6.80;;;1.70;;
1715;SDS011;855;48.824;9.220;2023-07-28T04:06:58;4.50;;;3.03;;
1715;SDS011;855;48.824;9.220;2023-07-28T04:09:25;5.83;;;2.90;;
1715;SDS011;855;48.824;9.220;2023-07-28T04:11:53;5.53;;;2.50;;
1715;SDS011;855;48.824;9.220;2023-07-28T04:14:19;5.80;;;2.60;;
1715;SDS011;855;48.824;9.220;2023-07-28T04:16:48;3.83;;;2.63;;
1715;SDS011;855;48.824;9.220;2023-07-28T04:19:16;3.30;;;2.20;;
1715;SDS011;855;48.824;9.220;2023-07-28T04:21:43;4.60;;;2.13;;
1715;SDS011;855;48.824;9.220;2023-07-28T04:24:10;10.43;;;1.70;;
1715;SDS011;855;48.824;9.220;2023-07-28T04:26:37;4.93;;;2.43;;
1715;SDS011;855;48.824;9.220;2023-07-28T04:29:04;3.93;;;1.97;;
1715;SDS011;855;48.824;9.220;2023-07-28T04:31:30;4.80;;;2.17;;
1715;SDS011;855;48.824;9.220;2023-07-28T04:33:57;4.27;;;2.40;;
1715;SDS011;855;48.824;9.220;2023-07-28T04:36:25;4.40;;;2.27;;
1715;SDS011;855;48.824;9.220;2023-07-28T04:38:52;3.03;;;2.03;;
1715;SDS011;855;48.824;9.220;2023-07-28T04:41:19;3.00;;;1.93;;
1715;SDS011;855;48.824;9.220;2023-07-28T04:43:46;3.90;;;2.20;;
1715;SDS011;855;48.824;9.220;2023-07-28T04:46:13;4.90;;;3.00;;
1715;SDS011;855;48.824;9.220;2023-07-28T04:48:39;3.17;;;1.80;;
1715;SDS011;855;48.824;9.220;2023-07-28T04:51:06;4.23;;;2.60;;
1715;SDS011;855;48.824;9.220;2023-07-28T04:53:34;2.77;;;2.00;;
1715;SDS011;855;48.824;9.220;2023-07-28T04:56:01;5.47;;;2.27;;
1715;SDS011;855;48.824;9.220;2023-07-28T04:58:29;4.10;;;2.37;;
1715;SDS011;855;48.824;9.220;2023-07-28T05:00:56;3.33;;;2.20;;
1715;SDS011;855;48.824;9.220;2023-07-28T05:03:23;4.87;;;2.13;;
1715;SDS011;855;48.824;9.220;2023-07-28T05:05:49;14.27;;;2.00;;
1715;SDS011;855;48.824;9.220;2023-07-28T05:08:16;3.20;;;1.73;;
1715;SDS011;855;48.824;9.220;2023-07-28T05:10:44;6.17;;;2.10;;
1715;SDS011;855;48.824;9.220;2023-07-28T05:13:11;5.20;;;2.33;;
1715;SDS011;855;48.824;9.220;2023-07-28T05:15:38;3.63;;;2.07;;
1715;SDS011;855;48.824;9.220;2023-07-28T05:18:08;3.57;;;2.30;;
1715;SDS011;855;48.824;9.220;2023-07-28T05:20:34;5.87;;;2.93;;
1715;SDS011;855;48.824;9.220;2023-07-28T05:23:01;5.30;;;2.37;;
1715;SDS011;855;48.824;9.220;2023-07-28T05:25:28;4.27;;;2.37;;
1715;SDS011;855;48.824;9.220;2023-07-28T05:27:58;5.33;;;2.40;;
1715;SDS011;855;48.824;9.220;2023-07-28T05:30:25;3.90;;;2.40;;
1715;SDS011;855;48.824;9.220;2023-07-28T05:32:53;3.53;;;2.33;;
1715;SDS011;855;48.824;9.220;2023-07-28T05:35:20;4.60;;;2.17;;
1715;SDS011;855;48.824;9.220;2023-07-28T05:37:47;4.83;;;2.60;;
1715;SDS011;855;48.824;9.220;2023-07-28T05:40:13;7.17;;;2.40;;
1715;SDS011;855;48.824;9.220;2023-07-28T05:42:40;6.87;;;2.83;;
1715;SDS011;855;48.824;9.220;2023-07-28T05:45:09;7.20;;;2.70;;
1715;SDS011;855;48.824;9.220;2023-07-28T05:51:11;5.50;;;2.83;;
1715;SDS011;855;48.824;9.220;2023-07-28T05:53:40;5.23;;;2.60;;
1715;SDS011;855;48.824;9.220;2023-07-28T05:56:06;5.03;;;2.33;;
1715;SDS011;855;48.824;9.220;2023-07-28T05:58:33;7.90;;;3.53;;
1715;SDS011;855;48.824;9.220;2023-07-28T06:01:02;4.73;;;3.00;;
1715;SDS011;855;48.824;9.220;2023-07-28T06:03:28;9.83;;;4.57;;
1715;SDS011;855;48.824;9.220;2023-07-28T06:05:55;6.30;;;2.70;;
1715;SDS011;855;48.824;9.220;2023-07-28T06:08:22;10.17;;;3.57;;
1715;SDS011;855;48.824;9.220;2023-07-28T06:10:49;7.63;;;3.87;;
1715;SDS011;855;48.824;9.220;2023-07-28T06:13:22;9.67;;;4.83;;
1715;SDS011;855;48.824;9.220;2023-07-28T06:15:59;8.60;;;4.00;;
1715;SDS011;855;48.824;9.220;2023-07-28T06:18:27;17.43;;;4.97;;
1715;SDS011;855;48.824;9.220;2023-07-28T06:20:54;10.67;;;3.50;;
1715;SDS011;855;48.824;9.220;2023-07-28T06:23:21;11.73;;;4.97;;
1715;SDS011;855;48.824;9.220;2023-07-28T06:25:49;12.47;;;4.60;;
1715;SDS011;855;48.824;9.220;2023-07-28T06:28:16;12.50;;;5.00;;
1715;SDS011;855;48.824;9.220;2023-07-28T06:30:42;11.03;;;3.83;;
1715;SDS011;855;48.824;9.220;2023-07-28T06:33:11;7.63;;;4.43;;
1715;SDS011;855;48.824;9.220;2023-07-28T06:35:38;11.57;;;4.13;;
1715;SDS011;855;48.824;9.220;2023-07-28T06:38:07;15.87;;;4.83;;
1715;SDS011;855;48.824;9.220;2023-07-28T06:40:33;7.80;;;4.33;;
1715;SDS011;855;48.824;9.220;2023-07-28T06:43:00;9.50;;;4.13;;
1715;SDS011;855;48.824;9.220;2023-07-28T06:45:27;9.23;;;5.00;;
1715;SDS011;855;48.824;9.220;2023-07-28T06:47:54;10.00;;;4.43;;
1715;SDS011;855;48.824;9.220;2023-07-28T06:50:22;10.20;;;5.00;;
1715;SDS011;855;48.824;9.220;2023-07-28T06:52:49;11.67;;;5.20;;
1715;SDS011;855;48.824;9.220;2023-07-28T06:55:17;7.53;;;4.20;;
1715;SDS011;855;48.824;9.220;2023-07-28T06:57:46;21.93;;;5.90;;
1715;SDS011;855;48.824;9.220;2023-07-28T07:00:13;9.13;;;4.27;;
1715;SDS011;855;48.824;9.220;2023-07-28T07:02:41;16.53;;;5.30;;
1715;SDS011;855;48.824;9.220;2023-07-28T07:05:08;9.00;;;5.60;;
1715;SDS011;855;48.824;9.220;2023-07-28T07:07:36;6.97;;;4.47;;
1715;SDS011;855;48.824;9.220;2023-07-28T07:10:05;16.50;;;6.40;;
1715;SDS011;855;48.824;9.220;2023-07-28T07:12:33;16.67;;;5.33;;
1715;SDS011;855;48.824;9.220;2023-07-28T07:15:01;12.27;;;6.30;;
1715;SDS011;855;48.824;9.220;2023-07-28T07:17:31;10.10;;;4.77;;
1715;SDS011;855;48.824;9.220;2023-07-28T07:19:58;14.27;;;4.70;;
1715;SDS011;855;48.824;9.220;2023-07-28T07:22:24;10.17;;;4.83;;
1715;SDS011;855;48.824;9.220;2023-07-28T07:24:54;6.83;;;4.00;;
1715;SDS011;855;48.824;9.220;2023-07-28T07:27:23;13.77;;;4.70;;
1715;SDS011;855;48.824;9.220;2023-07-28T07:29:50;24.77;;;5.50;;
1715;SDS011;855;48.824;9.220;2023-07-28T07:32:17;10.73;;;4.40;;
1715;SDS011;855;48.824;9.220;2023-07-28T07:34:44;13.17;;;5.00;;
1715;SDS011;855;48.824;9.220;2023-07-28T07:37:11;20.43;;;5.00;;
1715;SDS011;855;48.824;9.220;2023-07-28T07:39:38;11.23;;;5.57;;
1715;SDS011;855;48.824;9.220;2023-07-28T07:42:08;16.53;;;6.07;;
1715;SDS011;855;48.824;9.220;2023-07-28T07:44:36;11.23;;;4.60;;
1715;SDS011;855;48.824;9.220;2023-07-28T07:47:11;14.37;;;4.47;;
1715;SDS011;855;48.824;9.220;2023-07-28T07:49:42;17.23;;;5.80;;
1715;SDS011;855;48.824;9.220;2023-07-28T07:52:11;8.03;;;4.20;;
1715;SDS011;855;48.824;9.220;2023-07-28T07:54:38;13.80;;;5.33;;
1715;SDS011;855;48.824;9.220;2023-07-28T07:57:05;10.50;;;4.60;;
1715;SDS011;855;48.824;9.220;2023-07-28T07:59:33;9.27;;;4.17;;
1715;SDS011;855;48.824;9.220;2023-07-28T08:02:00;9.93;;;4.70;;
1715;SDS011;855;48.824;9.220;2023-07-28T08:04:28;8.13;;;3.20;;
1715;SDS011;855;48.824;9.220;2023-07-28T08:06:56;7.60;;;3.50;;
1715;SDS011;855;48.824;9.220;2023-07-28T08:09:23;6.30;;;3.43;;
1715;SDS011;855;48.824;9.220;2023-07-28T08:11:50;11.80;;;4.63;;
1715;SDS011;855;48.824;9.220;2023-07-28T08:14:19;16.63;;;5.43;;
1715;SDS011;855;48.824;9.220;2023-07-28T08:16:46;8.40;;;3.53;;
1715;SDS011;855;48.824;9.220;2023-07-28T08:19:15;12.77;;;4.17;;
1715;SDS011;855;48.824;9.220;2023-07-28T08:21:42;13.53;;;3.53;;
1715;SDS011;855;48.824;9.220;2023-07-28T08:24:09;18.27;;;4.30;;
1715;SDS011;855;48.824;9.220;2023-07-28T08:26:37;5.10;;;3.20;;
1715;SDS011;855;48.824;9.220;2023-07-28T08:29:03;10.33;;;4.73;;
1715;SDS011;855;48.824;9.220;2023-07-28T08:31:32;7.23;;;3.43;;
1715;SDS011;855;48.824;9.220;2023-07-28T08:34:00;7.53;;;2.97;;
1715;SDS011;855;48.824;9.220;2023-07-28T08:36:28;8.60;;;3.43;;
1715;SDS011;855;48.824;9.220;2023-07-28T08:38:54;8.00;;;3.30;;
1715;SDS011;855;48.824;9.220;2023-07-28T08:41:21;6.30;;;3.00;;
1715;SDS011;855;48.824;9.220;2023-07-28T08:43:48;9.57;;;3.83;;
1715;SDS011;855;48.824;9.220;2023-07-28T08:46:16;6.47;;;2.90;;
1715;SDS011;855;48.824;9.220;2023-07-28T08:48:44;18.43;;;3.80;;
1715;SDS011;855;48.824;9.220;2023-07-28T08:51:13;4.53;;;2.70;;
1715;SDS011;855;48.824;9.220;2023-07-28T08:53:42;8.17;;;3.30;;
1715;SDS011;855;48.824;9.220;2023-07-28T08:56:12;7.80;;;4.00;;
1715;SDS011;855;48.824;9.220;2023-07-28T08:58:39;17.03;;;3.67;;
1715;SDS011;855;48.824;9.220;2023-07-28T09:01:06;12.00;;;3.90;;
1715;SDS011;855;48.824;9.220;2023-07-28T09:03:33;9.60;;;3.70;;
1715;SDS011;855;48.824;9.220;2023-07-28T09:06:04;12.30;;;4.00;;
1715;SDS011;855;48.824;9.220;2023-07-28T09:08:33;6.90;;;3.60;;
1715;SDS011;855;48.824;9.220;2023-07-28T09:11:02;13.63;;;4.00;;
1715;SDS011;855;48.824;9.220;2023-07-28T09:13:35;8.03;;;4.07;;
1715;SDS011;855;48.824;9.220;2023-07-28T09:16:03;9.00;;;3.80;;
1715;SDS011;855;48.824;9.220;2023-07-28T09:18:30;7.00;;;2.60;;
1715;SDS011;855;48.824;9.220;2023-07-28T09:20:57;12.10;;;3.20;;
1715;SDS011;855;48.824;9.220;2023-07-28T09:23:29;15.40;;;2.97;;
1715;SDS011;855;48.824;9.220;2023-07-28T09:25:58;5.50;;;2.63;;
1715;SDS011;855;48.824;9.220;2023-07-28T09:28:35;6.80;;;2.73;;
1715;SDS011;855;48.824;9.220;2023-07-28T09:31:03;6.20;;;2.73;;
1715;SDS011;855;48.824;9.220;2023-07-28T09:33:31;5.63;;;3.37;;
1715;SDS011;855;48.824;9.220;2023-07-28T09:36:06;8.73;;;3.10;;
1715;SDS011;855;48.824;9.220;2023-07-28T09:38:35;3.83;;;2.63;;
1715;SDS011;855;48.824;9.220;2023-07-28T09:41:04;5.83;;;2.63;;
1715;SDS011;855;48.824;9.220;2023-07-28T09:43:33;5.57;;;1.97;;
1715;SDS011;855;48.824;9.220;2023-07-28T09:46:00;5.03;;;2.47;;
1715;SDS011;855;48.824;9.220;2023-07-28T09:48:31;5.23;;;1.93;;
1715;SDS011;855;48.824;9.220;2023-07-28T09:50:59;2.30;;;1.63;;
1715;SDS011;855;48.824;9.220;2023-07-28T09:53:30;3.93;;;1.60;;
1715;SDS011;855;48.824;9.220;2023-07-28T09:56:06;3.80;;;2.23;;
1715;SDS011;855;48.824;9.220;2023-07-28T09:58:35;4.53;;;2.10;;
1715;SDS011;855;48.824;9.220;2023-07-28T10:01:07;4.53;;;2.47;;
1715;SDS011;855;48.824;9.220;2023-07-28T10:03:36;2.17;;;1.23;;
1715;SDS011;855;48.824;9.220;2023-07-28T10:06:03;3.20;;;1.50;;
1715;SDS011;855;48.824;9.220;2023-07-28T10:08:30;2.60;;;1.47;;
1715;SDS011;855;48.824;9.220;2023-07-28T10:11:00;7.97;;;3.40;;
1715;SDS011;855;48.824;9.220;2023-07-28T10:13:32;2.47;;;1.67;;
1715;SDS011;855;48.824;9.220;2023-07-28T10:16:06;2.50;;;1.30;;
1715;SDS011;855;48.824;9.220;2023-07-28T10:18:34;2.70;;;0.90;;
1715;SDS011;855;48.824;9.220;2023-07-28T10:21:04;2.03;;;1.47;;
1715;SDS011;855;48.824;9.220;2023-07-28T10:23:33;4.20;;;1.87;;
1715;SDS011;855;48.824;9.220;2023-07-28T10:26:02;1.80;;;1.23;;
1715;SDS011;855;48.824;9.220;2023-07-28T10:28:31;1.47;;;1.20;;
1715;SDS011;855;48.824;9.220;2023-07-28T10:31:05;6.03;;;1.60;;
1715;SDS011;855;48.824;9.220;2023-07-28T10:33:33;2.93;;;1.53;;
1715;SDS011;855;48.824;9.220;2023-07-28T10:36:10;2.73;;;1.47;;
1715;SDS011;855;48.824;9.220;2023-07-28T10:38:39;1.83;;;1.20;;
1715;SDS011;855;48.824;9.220;2023-07-28T10:41:08;4.27;;;2.30;;
1715;SDS011;855;48.824;9.220;2023-07-28T10:43:36;2.43;;;1.07;;
1715;SDS011;855;48.824;9.220;2023-07-28T10:46:04;3.80;;;1.53;;
1715;SDS011;855;48.824;9.220;2023-07-28T10:48:33;8.40;;;2.20;;
1715;SDS011;855;48.824;9.220;2023-07-28T10:51:01;2.27;;;1.23;;
1715;SDS011;855;48.824;9.220;2023-07-28T10:53:28;3.00;;;1.80;;
1715;SDS011;855;48.824;9.220;2023-07-28T10:55:54;3.23;;;1.70;;
1715;SDS011;855;48.824;9.220;2023-07-28T10:58:23;3.60;;;1.63;;
1715;SDS011;855;48.824;9.220;2023-07-28T11:00:50;5.10;;;1.23;;
1715;SDS011;855;48.824;9.220;2023-07-28T11:03:17;5.23;;;1.70;;
1715;SDS011;855;48.824;9.220;2023-07-28T11:05:45;2.50;;;1.60;;
1715;SDS011;855;48.824;9.220;2023-07-28T11:08:14;1.90;;;1.30;;
1715;SDS011;855;48.824;9.220;2023-07-28T11:10:41;2.77;;;1.70;;
1715;SDS011;855;48.824;9.220;2023-07-28T11:13:08;6.23;;;1.50;;
1715;SDS011;855;48.824;9.220;2023-07-28T11:15:36;3.23;;;1.50;;
1715;SDS011;855;48.824;9.220;2023-07-28T11:18:03;3.20;;;1.67;;
1715;SDS011;855;48.824;9.220;2023-07-28T11:20:31;4.50;;;2.30;;
1715;SDS011;855;48.824;9.220;2023-07-28T11:22:58;3.90;;;2.10;;
1715;SDS011;855;48.824;9.220;2023-07-28T11:25:29;8.60;;;1.30;;
1715;SDS011;855;48.824;9.220;2023-07-28T11:27:57;3.13;;;2.00;;
1715;SDS011;855;48.824;9.220;2023-07-28T11:30:28;2.70;;;1.33;;
1715;SDS011;855;48.824;9.220;2023-07-28T11:32:56;2.60;;;2.00;;
1715;SDS011;855;48.824;9.220;2023-07-28T11:35:23;3.30;;;1.40;;
1715;SDS011;855;48.824;9.220;2023-07-28T11:37:51;3.10;;;1.40;;
1715;SDS011;855;48.824;9.220;2023-07-28T11:40:20;2.57;;;1.90;;
1715;SDS011;855;48.824;9.220;2023-07-28T11:42:51;3.60;;;1.50;;
1715;SDS011;855;48.824;9.220;2023-07-28T11:45:20;1.90;;;1.53;;
1715;SDS011;855;48.824;9.220;2023-07-28T11:47:52;1.33;;;1.20;;
1715;SDS011;855;48.824;9.220;2023-07-28T11:50:26;3.27;;;1.30;;
1715;SDS011;855;48.824;9.220;2023-07-28T11:52:54;8.73;;;1.20;;
1715;SDS011;855;48.824;9.220;2023-07-28T11:55:22;2.60;;;1.07;;
1715;SDS011;855;48.824;9.220;2023-07-28T11:57:50;1.33;;;0.90;;
1715;SDS011;855;48.824;9.220;2023-07-28T12:00:18;1.00;;;0.57;;
1715;SDS011;855;48.824;9.220;2023-07-28T12:03:00;1.87;;;1.00;;
1715;SDS011;855;48.824;9.220;2023-07-28T12:05:32;1.43;;;0.83;;
1715;SDS011;855;48.824;9.220;2023-07-28T12:08:02;4.00;;;0.60;;
1715;SDS011;855;48.824;9.220;2023-07-28T12:10:29;1.47;;;1.00;;
1715;SDS011;855;48.824;9.220;2023-07-28T12:12:57;0.60;;;0.60;;
1715;SDS011;855;48.824;9.220;2023-07-28T12:15:30;2.10;;;0.77;;
1715;SDS011;855;48.824;9.220;2023-07-28T12:18:08;1.50;;;0.90;;
1715;SDS011;855;48.824;9.220;2023-07-28T12:20:38;1.83;;;1.07;;
1715;SDS011;855;48.824;9.220;2023-07-28T12:23:11;0.97;;;0.63;;
1715;SDS011;855;48.824;9.220;2023-07-28T12:25:39;1.37;;;0.90;;
1715;SDS011;855;48.824;9.220;2023-07-28T12:28:06;2.00;;;1.13;;
1715;SDS011;855;48.824;9.220;2023-07-28T12:30:33;2.63;;;1.33;;
1715;SDS011;855;48.824;9.220;2023-07-28T12:33:00;2.67;;;1.53;;
1715;SDS011;855;48.824;9.220;2023-07-28T12:35:28;1.17;;;1.00;;
1715;SDS011;855;48.824;9.220;2023-07-28T12:37:58;3.67;;;2.50;;
1715;SDS011;855;48.824;9.220;2023-07-28T12:40:26;3.33;;;1.63;;
1715;SDS011;855;48.824;9.220;2023-07-28T12:42:54;2.60;;;1.20;;
1715;SDS011;855;48.824;9.220;2023-07-28T12:45:21;2.53;;;1.37;;
1715;SDS011;855;48.824;9.220;2023-07-28T12:47:50;2.87;;;1.33;;
1715;SDS011;855;48.824;9.220;2023-07-28T12:50:18;1.67;;;0.90;;
1715;SDS011;855;48.824;9.220;2023-07-28T12:52:45;3.20;;;1.50;;
1715;SDS011;855;48.824;9.220;2023-07-28T12:55:14;2.50;;;1.40;;
1715;SDS011;855;48.824;9.220;2023-07-28T12:57:41;1.80;;;1.13;;
1715;SDS011;855;48.824;9.220;2023-07-28T13:00:09;2.37;;;1.33;;
1715;SDS011;855;48.824;9.220;2023-07-28T13:02:38;2.43;;;1.20;;
1715;SDS011;855;48.824;9.220;2023-07-28T13:05:06;2.20;;;1.40;;
1715;SDS011;855;48.824;9.220;2023-07-28T13:07:34;2.03;;;1.70;;
1715;SDS011;855;48.824;9.220;2023-07-28T13:10:01;2.73;;;1.10;;
1715;SDS011;855;48.824;9.220;2023-07-28T13:12:30;2.27;;;1.20;;
1715;SDS011;855;48.824;9.220;2023-07-28T13:14:57;3.33;;;1.53;;
1715;SDS011;855;48.824;9.220;2023-07-28T13:17:24;3.97;;;1.53;;
1715;SDS011;855;48.824;9.220;2023-07-28T13:19:50;4.33;;;1.90;;
1715;SDS011;855;48.824;9.220;2023-07-28T13:22:17;2.73;;;1.40;;
1715;SDS011;855;48.824;9.220;2023-07-28T13:24:44;1.60;;;0.90;;
1715;SDS011;855;48.824;9.220;2023-07-28T13:27:11;4.50;;;1.80;;
1715;SDS011;855;48.824;9.220;2023-07-28T13:29:39;2.10;;;1.63;;
1715;SDS011;855;48.824;9.220;2023-07-28T13:32:15;1.50;;;1.40;;
1715;SDS011;855;48.824;9.220;2023-07-28T13:34:42;3.57;;;1.67;;
1715;SDS011;855;48.824;9.220;2023-07-28T13:37:10;5.80;;;1.90;;
1715;SDS011;855;48.824;9.220;2023-07-28T13:39:36;2.27;;;1.77;;
1715;SDS011;855;48.824;9.220;2023-07-28T13:42:03;2.70;;;1.87;;
1715;SDS011;855;48.824;9.220;2023-07-28T13:44:30;3.40;;;1.50;;
1715;SDS011;855;48.824;9.220;2023-07-28T13:46:58;3.33;;;1.90;;
1715;SDS011;855;48.824;9.220;2023-07-28T13:49:25;4.40;;;2.00;;
1715;SDS011;855;48.824;9.220;2023-07-28T13:51:52;3.07;;;1.53;;
1715;SDS011;855;48.824;9.220;2023-07-28T13:54:19;2.17;;;1.70;;
1715;SDS011;855;48.824;9.220;2023-07-28T13:56:46;4.03;;;2.10;;
1715;SDS011;855;48.824;9.220;2023-07-28T13:59:16;4.40;;;1.80;;
1715;SDS011;855;48.824;9.220;2023-07-28T14:01:42;2.33;;;1.73;;
1715;SDS011;855;48.824;9.220;2023-07-28T14:04:11;2.80;;;1.80;;
1715;SDS011;855;48.824;9.220;2023-07-28T14:06:39;3.63;;;2.00;;
1715;SDS011;855;48.824;9.220;2023-07-28T14:09:05;3.07;;;1.63;;
1715;SDS011;855;48.824;9.220;2023-07-28T14:11:32;3.50;;;1.90;;
1715;SDS011;855;48.824;9.220;2023-07-28T14:14:00;6.67;;;2.13;;
1715;SDS011;855;48.824;9.220;2023-07-28T14:16:27;10.00;;;2.40;;
1715;SDS011;855;48.824;9.220;2023-07-28T14:18:55;4.07;;;2.20;;
1715;SDS011;855;48.824;9.220;2023-07-28T14:21:23;4.60;;;2.80;;
1715;SDS011;855;48.824;9.220;2023-07-28T14:23:50;3.23;;;1.47;;
1715;SDS011;855;48.824;9.220;2023-07-28T14:26:16;6.53;;;2.27;;
1715;SDS011;855;48.824;9.220;2023-07-28T14:28:43;4.10;;;1.77;;
1715;SDS011;855;48.824;9.220;2023-07-28T14:31:10;5.03;;;1.70;;
1715;SDS011;855;48.824;9.220;2023-07-28T14:33:37;5.27;;;2.67;;
1715;SDS011;855;48.824;9.220;2023-07-28T14:36:04;4.77;;;2.43;;
1715;SDS011;855;48.824;9.220;2023-07-28T14:38:32;4.60;;;2.63;;
1715;SDS011;855;48.824;9.220;2023-07-28T14:40:59;5.20;;;2.43;;
1715;SDS011;855;48.824;9.220;2023-07-28T14:43:25;6.23;;;2.30;;
1715;SDS011;855;48.824;9.220;2023-07-28T14:45:52;6.07;;;2.43;;
1715;SDS011;855;48.824;9.220;2023-07-28T14:48:19;3.90;;;2.47;;
1715;SDS011;855;48.824;9.220;2023-07-28T14:50:46;5.37;;;2.10;;
1715;SDS011;855;48.824;9.220;2023-07-28T14:53:29;6.50;;;2.60;;
1715;SDS011;855;48.824;9.220;2023-07-28T14:55:58;9.27;;;2.80;;
1715;SDS011;855;48.824;9.220;2023-07-28T14:58:25;5.67;;;2.43;;
1715;SDS011;855;48.824;9.220;2023-07-28T15:00:53;5.63;;;2.37;;
1715;SDS011;855;48.824;9.220;2023-07-28T15:03:20;4.23;;;2.00;;
1715;SDS011;855;48.824;9.220;2023-07-28T15:05:46;3.50;;;1.97;;
1715;SDS011;855;48.824;9.220;2023-07-28T15:08:14;3.53;;;2.47;;
1715;SDS011;855;48.824;9.220;2023-07-28T15:10:41;3.17;;;2.00;;
1715;SDS011;855;48.824;9.220;2023-07-28T15:13:09;2.87;;;1.83;;
1715;SDS011;855;48.824;9.220;2023-07-28T15:15:36;5.33;;;2.20;;
1715;SDS011;855;48.824;9.220;2023-07-28T15:18:03;5.57;;;3.13;;
1715;SDS011;855;48.824;9.220;2023-07-28T15:20:30;4.03;;;2.60;;
1715;SDS011;855;48.824;9.220;2023-07-28T15:22:56;6.03;;;2.20;;
1715;SDS011;855;48.824;9.220;2023-07-28T15:25:24;4.90;;;3.10;;
1715;SDS011;855;48.824;9.220;2023-07-28T15:27:53;7.93;;;3.23;;
1715;SDS011;855;48.824;9.220;2023-07-28T15:30:21;4.20;;;2.37;;
1715;SDS011;855;48.824;9.220;2023-07-28T15:32:48;6.93;;;3.77;;
1715;SDS011;855;48.824;9.220;2023-07-28T15:35:18;7.23;;;2.50;;
1715;SDS011;855;48.824;9.220;2023-07-28T15:37:44;4.33;;;2.30;;
1715;SDS011;855;48.824;9.220;2023-07-28T15:40:11;4.00;;;2.07;;
1715;SDS011;855;48.824;9.220;2023-07-28T15:42:38;4.53;;;3.80;;
1715;SDS011;855;48.824;9.220;2023-07-28T15:45:06;2.70;;;1.63;;
1715;SDS011;855;48.824;9.220;2023-07-28T15:47:35;3.50;;;1.90;;
1715;SDS011;855;48.824;9.220;2023-07-28T15:50:01;3.87;;;1.90;;